sensor_id;sensor_type;location;lat;lon;timestamp;pressure;altitude;pressure_sealevel;temperature;humidity
56142;BME280;42018;48.588;10.836;2023-05-01T00:02:42;96722.13;;;10.18;67.15
56142;BME280;42018;48.588;10.836;2023-05-01T00:05:27;96718.91;;;10.06;67.57
56142;BME280;42018;48.588;10.836;2023-05-01T00:08:12;96713.34;;;9.97;68.41
56142;BME280;42018;48.588;10.836;2023-05-01T00:11:02;96708.81;;;9.82;69.39
56142;BME280;42018;48.588;10.836;2023-05-01T00:13:47;96699.81;;;9.89;68.71
56142;BME280;42018;48.588;10.836;2023-05-01T00:16:32;96700.13;;;10.02;68.31
56142;BME280;42018;48.588;10.836;2023-05-01T00:19:19;96700.66;;;10.04;68.32
56142;BME280;42018;48.588;10.836;2023-05-01T00:22:05;96700.16;;;10.23;68.03
56142;BME280;42018;48.588;10.836;2023-05-01T00:24:50;96693.03;;;10.34;67.06
56142;BME280;42018;48.588;10.836;2023-05-01T00:27:35;96689.56;;;10.28;67.13
56142;BME280;42018;48.588;10.836;2023-05-01T00:30:21;96680.81;;;10.22;67.17
56142;BME280;42018;48.588;10.836;2023-05-01T00:33:06;96685.84;;;10.08;67.78
56142;BME280;42018;48.588;10.836;2023-05-01T00:35:51;96685.31;;;10.17;67.21
56142;BME280;42018;48.588;10.836;2023-05-01T00:38:37;96678.41;;;10.05;67.70
56142;BME280;42018;48.588;10.836;2023-05-01T00:41:22;96669.16;;;9.93;68.08
56142;BME280;42018;48.588;10.836;2023-05-01T00:44:07;96667.81;;;9.95;68.34
56142;BME280;42018;48.588;10.836;2023-05-01T00:46:52;96667.78;;;9.85;68.86
56142;BME280;42018;48.588;10.836;2023-05-01T00:49:38;96670.47;;;9.95;68.18
56142;BME280;42018;48.588;10.836;2023-05-01T00:52:25;96674.72;;;9.96;68.25
56142;BME280;42018;48.588;10.836;2023-05-01T00:55:11;96667.56;;;9.97;67.17
56142;BME280;42018;48.588;10.836;2023-05-01T00:57:57;96661.22;;;9.93;67.90
56142;BME280;42018;48.588;10.836;2023-05-01T01:00:43;96662.00;;;9.93;67.56
56142;BME280;42018;48.588;10.836;2023-05-01T01:03:28;96651.66;;;9.87;68.16
56142;BME280;42018;48.588;10.836;2023-05-01T01:06:18;96652.97;;;9.74;68.80
56142;BME280;42018;48.588;10.836;2023-05-01T01:15:01;96644.53;;;10.13;67.66
56142;BME280;42018;48.588;10.836;2023-05-01T01:17:57;96643.75;;;10.22;67.46
56142;BME280;42018;48.588;10.836;2023-05-01T01:35:26;96635.25;;;9.84;68.34
56142;BME280;42018;48.588;10.836;2023-05-01T01:38:15;96630.22;;;9.83;68.26
56142;BME280;42018;48.588;10.836;2023-05-01T01:41:06;96617.50;;;9.85;68.70
56142;BME280;42018;48.588;10.836;2023-05-01T01:43:57;96622.81;;;9.95;67.62
56142;BME280;42018;48.588;10.836;2023-05-01T01:46:45;96624.97;;;10.03;66.97
56142;BME280;42018;48.588;10.836;2023-05-01T01:49:32;96623.09;;;10.19;66.86
56142;BME280;42018;48.588;10.836;2023-05-01T01:52:19;96622.03;;;10.20;67.03
56142;BME280;42018;48.588;10.836;2023-05-01T01:55:07;96619.44;;;10.36;65.28
56142;BME280;42018;48.588;10.836;2023-05-01T01:57:53;96621.78;;;10.22;66.01
56142;BME280;42018;48.588;10.836;2023-05-01T02:00:40;96622.31;;;10.19;66.58
56142;BME280;42018;48.588;10.836;2023-05-01T02:03:28;96624.44;;;10.27;64.83
56142;BME280;42018;48.588;10.836;2023-05-01T02:06:14;96617.56;;;10.41;64.59
56142;BME280;42018;48.588;10.836;2023-05-01T02:09:01;96612.50;;;10.45;64.20
56142;BME280;42018;48.588;10.836;2023-05-01T02:11:47;96602.97;;;10.49;61.83
56142;BME280;42018;48.588;10.836;2023-05-01T02:14:33;96604.03;;;10.48;62.23
56142;BME280;42018;48.588;10.836;2023-05-01T02:17:19;96606.97;;;10.41;63.19
56142;BME280;42018;48.588;10.836;2023-05-01T02:20:05;96607.25;;;10.40;63.40
56142;BME280;42018;48.588;10.836;2023-05-01T02:22:51;96604.03;;;10.17;64.01
56142;BME280;42018;48.588;10.836;2023-05-01T02:25:37;96604.06;;;10.07;64.29
56142;BME280;42018;48.588;10.836;2023-05-01T02:28:23;96604.84;;;10.18;64.83
56142;BME280;42018;48.588;10.836;2023-05-01T02:31:10;96601.41;;;10.22;64.83
56142;BME280;42018;48.588;10.836;2023-05-01T02:33:56;96598.72;;;10.17;64.35
56142;BME280;42018;48.588;10.836;2023-05-01T02:36:41;96602.72;;;10.20;63.54
56142;BME280;42018;48.588;10.836;2023-05-01T02:39:26;96592.66;;;10.12;63.89
56142;BME280;42018;48.588;10.836;2023-05-01T02:42:12;96596.38;;;10.11;62.23
56142;BME280;42018;48.588;10.836;2023-05-01T02:45:02;96591.31;;;10.24;63.64
56142;BME280;42018;48.588;10.836;2023-05-01T02:47:49;96582.34;;;10.15;62.90
56142;BME280;42018;48.588;10.836;2023-05-01T02:50:35;96580.50;;;10.11;62.56
56142;BME280;42018;48.588;10.836;2023-05-01T02:53:21;96578.09;;;10.19;61.93
56142;BME280;42018;48.588;10.836;2023-05-01T02:56:06;96564.34;;;10.02;62.34
56142;BME280;42018;48.588;10.836;2023-05-01T02:58:52;96570.41;;;9.92;62.13
56142;BME280;42018;48.588;10.836;2023-05-01T03:01:37;96567.78;;;9.87;63.55
56142;BME280;42018;48.588;10.836;2023-05-01T03:04:23;96562.50;;;9.82;63.68
56142;BME280;42018;48.588;10.836;2023-05-01T03:07:09;96571.47;;;9.91;63.04
56142;BME280;42018;48.588;10.836;2023-05-01T03:09:54;96571.75;;;10.00;62.97
56142;BME280;42018;48.588;10.836;2023-05-01T03:12:39;96570.97;;;10.15;62.06
56142;BME280;42018;48.588;10.836;2023-05-01T03:15:26;96575.19;;;9.95;63.63
56142;BME280;42018;48.588;10.836;2023-05-01T03:18:11;96570.97;;;9.94;64.48
56142;BME280;42018;48.588;10.836;2023-05-01T03:20:56;96572.53;;;9.95;65.14
56142;BME280;42018;48.588;10.836;2023-05-01T03:23:41;96563.28;;;9.98;64.92
56142;BME280;42018;48.588;10.836;2023-05-01T03:26:27;96565.13;;;10.02;65.07
56142;BME280;42018;48.588;10.836;2023-05-01T03:29:12;96551.91;;;9.97;64.86
56142;BME280;42018;48.588;10.836;2023-05-01T03:31:57;96561.16;;;9.95;64.94
56142;BME280;42018;48.588;10.836;2023-05-01T03:34:43;96551.13;;;9.76;66.47
56142;BME280;42018;48.588;10.836;2023-05-01T03:37:29;96559.31;;;9.70;66.30
56142;BME280;42018;48.588;10.836;2023-05-01T03:40:14;96554.03;;;9.75;65.88
56142;BME280;42018;48.588;10.836;2023-05-01T03:43:00;96554.56;;;9.72;66.68
56142;BME280;42018;48.588;10.836;2023-05-01T03:45:45;96541.84;;;9.64;66.78
56142;BME280;42018;48.588;10.836;2023-05-01T03:48:30;96545.28;;;9.69;67.44
56142;BME280;42018;48.588;10.836;2023-05-01T03:51:16;96543.44;;;9.90;66.69
56142;BME280;42018;48.588;10.836;2023-05-01T03:54:01;96533.91;;;9.99;65.96
56142;BME280;42018;48.588;10.836;2023-05-01T03:56:46;96543.72;;;9.94;66.02
56142;BME280;42018;48.588;10.836;2023-05-01T03:59:32;96538.69;;;9.97;66.15
56142;BME280;42018;48.588;10.836;2023-05-01T04:02:17;96540.78;;;9.95;65.53
56142;BME280;42018;48.588;10.836;2023-05-01T04:05:02;96536.56;;;9.94;65.69
56142;BME280;42018;48.588;10.836;2023-05-01T04:07:48;96543.19;;;9.97;65.21
56142;BME280;42018;48.588;10.836;2023-05-01T04:10:33;96545.81;;;10.02;64.97
56142;BME280;42018;48.588;10.836;2023-05-01T04:13:18;96544.75;;;9.77;65.37
56142;BME280;42018;48.588;10.836;2023-05-01T04:16:04;96540.00;;;9.69;66.19
56142;BME280;42018;48.588;10.836;2023-05-01T04:18:50;96536.81;;;9.77;66.33
56142;BME280;42018;48.588;10.836;2023-05-01T04:21:35;96545.03;;;9.76;66.06
56142;BME280;42018;48.588;10.836;2023-05-01T04:24:20;96548.75;;;9.75;65.94
56142;BME280;42018;48.588;10.836;2023-05-01T04:27:06;96552.44;;;9.79;65.77
56142;BME280;42018;48.588;10.836;2023-05-01T04:29:51;96550.06;;;9.88;65.46
56142;BME280;42018;48.588;10.836;2023-05-01T04:32:36;96552.69;;;9.88;65.44
56142;BME280;42018;48.588;10.836;2023-05-01T04:35:21;96546.88;;;9.80;66.02
56142;BME280;42018;48.588;10.836;2023-05-01T04:38:07;96544.50;;;9.74;66.65
56142;BME280;42018;48.588;10.836;2023-05-01T04:40:53;96546.34;;;9.83;66.92
56142;BME280;42018;48.588;10.836;2023-05-01T04:43:39;96548.72;;;9.95;65.38
56142;BME280;42018;48.588;10.836;2023-05-01T04:46:24;96547.13;;;10.04;65.29
56142;BME280;42018;48.588;10.836;2023-05-01T04:49:09;96538.91;;;10.16;64.81
56142;BME280;42018;48.588;10.836;2023-05-01T04:51:55;96539.44;;;10.23;62.92
56142;BME280;42018;48.588;10.836;2023-05-01T04:54:40;96541.84;;;10.15;63.43
56142;BME280;42018;48.588;10.836;2023-05-01T04:57:26;96534.16;;;10.18;62.01
56142;BME280;42018;48.588;10.836;2023-05-01T05:00:11;96539.69;;;10.17;62.23
56142;BME280;42018;48.588;10.836;2023-05-01T05:02:56;96538.91;;;10.16;61.83
56142;BME280;42018;48.588;10.836;2023-05-01T05:05:42;96543.44;;;10.11;63.48
56142;BME280;42018;48.588;10.836;2023-05-01T05:08:27;96545.53;;;10.14;63.49
56142;BME280;42018;48.588;10.836;2023-05-01T05:11:13;96547.38;;;10.18;64.56
56142;BME280;42018;48.588;10.836;2023-05-01T05:13:58;96553.75;;;10.43;62.25
56142;BME280;42018;48.588;10.836;2023-05-01T05:16:43;96548.44;;;10.38;61.66
56142;BME280;42018;48.588;10.836;2023-05-01T05:19:28;96555.81;;;10.51;61.53
56142;BME280;42018;48.588;10.836;2023-05-01T05:22:14;96549.50;;;10.47;61.49
56142;BME280;42018;48.588;10.836;2023-05-01T05:24:59;96559.25;;;10.51;62.41
56142;BME280;42018;48.588;10.836;2023-05-01T05:27:48;96551.81;;;10.59;61.95
56142;BME280;42018;48.588;10.836;2023-05-01T05:30:33;96547.84;;;10.56;61.68
56142;BME280;42018;48.588;10.836;2023-05-01T05:33:18;96551.56;;;10.55;60.95
56142;BME280;42018;48.588;10.836;2023-05-01T05:36:04;96552.63;;;10.49;61.62
56142;BME280;42018;48.588;10.836;2023-05-01T05:38:49;96553.16;;;10.56;61.18
56142;BME280;42018;48.588;10.836;2023-05-01T05:41:34;96549.72;;;10.55;60.92
56142;BME280;42018;48.588;10.836;2023-05-01T05:44:19;96545.78;;;10.53;60.79
56142;BME280;42018;48.588;10.836;2023-05-01T05:47:05;96556.66;;;10.46;60.64
56142;BME280;42018;48.588;10.836;2023-05-01T05:49:50;96556.06;;;10.60;61.51
56142;BME280;42018;48.588;10.836;2023-05-01T05:52:35;96557.69;;;10.50;61.24
56142;BME280;42018;48.588;10.836;2023-05-01T05:55:21;96564.06;;;10.44;61.34
56142;BME280;42018;48.588;10.836;2023-05-01T05:58:06;96564.81;;;10.55;61.58
56142;BME280;42018;48.588;10.836;2023-05-01T06:00:51;96560.34;;;10.40;61.53
56142;BME280;42018;48.588;10.836;2023-05-01T06:03:39;96556.88;;;10.55;61.64
56142;BME280;42018;48.588;10.836;2023-05-01T06:06:25;96549.22;;;10.53;61.99
56142;BME280;42018;48.588;10.836;2023-05-01T06:09:11;96556.59;;;10.62;59.83
56142;BME280;42018;48.588;10.836;2023-05-01T06:11:56;96552.88;;;10.68;60.49
56142;BME280;42018;48.588;10.836;2023-05-01T06:14:42;96557.88;;;10.69;61.87
56142;BME280;42018;48.588;10.836;2023-05-01T06:17:28;96549.69;;;10.71;62.34
56142;BME280;42018;48.588;10.836;2023-05-01T06:20:13;96553.88;;;10.82;61.55
56142;BME280;42018;48.588;10.836;2023-05-01T06:22:58;96556.78;;;10.81;63.13
56142;BME280;42018;48.588;10.836;2023-05-01T06:25:44;96553.69;;;10.58;66.27
56142;BME280;42018;48.588;10.836;2023-05-01T06:28:29;96553.16;;;10.56;67.18
56142;BME280;42018;48.588;10.836;2023-05-01T06:31:14;96557.13;;;10.59;67.29
56142;BME280;42018;48.588;10.836;2023-05-01T06:33:59;96553.44;;;10.54;70.14
56142;BME280;42018;48.588;10.836;2023-05-01T06:36:45;96548.59;;;10.77;66.72
56142;BME280;42018;48.588;10.836;2023-05-01T06:39:30;96548.00;;;10.90;65.00
56142;BME280;42018;48.588;10.836;2023-05-01T06:42:15;96546.41;;;10.94;64.66
56142;BME280;42018;48.588;10.836;2023-05-01T06:45:01;96547.50;;;10.83;65.45
56142;BME280;42018;48.588;10.836;2023-05-01T06:47:47;96547.25;;;10.79;66.56
56142;BME280;42018;48.588;10.836;2023-05-01T06:50:32;96550.16;;;10.83;65.74
56142;BME280;42018;48.588;10.836;2023-05-01T06:53:18;96550.69;;;10.85;66.13
56142;BME280;42018;48.588;10.836;2023-05-01T06:56:03;96550.66;;;10.90;65.71
56142;BME280;42018;48.588;10.836;2023-05-01T06:58:48;96551.19;;;10.87;67.20
56142;BME280;42018;48.588;10.836;2023-05-01T07:01:34;96549.09;;;10.84;67.51
56142;BME280;42018;48.588;10.836;2023-05-01T07:04:19;96555.13;;;10.95;67.40
56142;BME280;42018;48.588;10.836;2023-05-01T07:07:04;96557.53;;;10.96;66.26
56142;BME280;42018;48.588;10.836;2023-05-01T07:09:49;96554.84;;;11.01;66.22
56142;BME280;42018;48.588;10.836;2023-05-01T07:12:35;96556.69;;;11.06;65.96
56142;BME280;42018;48.588;10.836;2023-05-01T07:15:20;96558.47;;;11.21;64.70
56142;BME280;42018;48.588;10.836;2023-05-01T07:18:06;96555.84;;;11.21;65.55
56142;BME280;42018;48.588;10.836;2023-05-01T07:20:51;96549.94;;;11.29;64.49
56142;BME280;42018;48.588;10.836;2023-05-01T07:23:36;96556.81;;;11.30;64.14
56142;BME280;42018;48.588;10.836;2023-05-01T07:26:23;96556.25;;;11.38;64.70
56142;BME280;42018;48.588;10.836;2023-05-01T07:29:09;96547.38;;;11.58;63.12
56142;BME280;42018;48.588;10.836;2023-05-01T07:31:55;96546.44;;;11.39;63.46
56142;BME280;42018;48.588;10.836;2023-05-01T07:34:40;96546.72;;;11.37;64.64
56142;BME280;42018;48.588;10.836;2023-05-01T07:37:26;96542.91;;;11.48;63.76
56142;BME280;42018;48.588;10.836;2023-05-01T07:40:11;96546.13;;;11.45;63.78
56142;BME280;42018;48.588;10.836;2023-05-01T07:42:56;96544.84;;;11.38;65.16
56142;BME280;42018;48.588;10.836;2023-05-01T07:45:41;96544.06;;;11.37;65.69
56142;BME280;42018;48.588;10.836;2023-05-01T07:48:37;96555.63;;;11.07;65.86
56142;BME280;42018;48.588;10.836;2023-05-01T07:51:23;96558.00;;;11.09;66.51
56142;BME280;42018;48.588;10.836;2023-05-01T07:54:08;96549.97;;;11.24;65.75
56142;BME280;42018;48.588;10.836;2023-05-01T07:56:54;96547.31;;;11.24;65.57
56142;BME280;42018;48.588;10.836;2023-05-01T07:59:40;96548.09;;;11.30;65.68
56142;BME280;42018;48.588;10.836;2023-05-01T08:02:25;96554.72;;;11.32;65.27
56142;BME280;42018;48.588;10.836;2023-05-01T08:05:11;96558.66;;;11.35;65.76
56142;BME280;42018;48.588;10.836;2023-05-01T08:07:56;96558.91;;;11.38;65.53
56142;BME280;42018;48.588;10.836;2023-05-01T08:10:41;96565.59;;;10.55;66.85
56142;BME280;42018;48.588;10.836;2023-05-01T08:13:27;96570.94;;;10.20;67.81
56142;BME280;42018;48.588;10.836;2023-05-01T08:16:12;96573.34;;;10.21;68.24
56142;BME280;42018;48.588;10.836;2023-05-01T08:18:57;96568.81;;;10.47;69.04
56142;BME280;42018;48.588;10.836;2023-05-01T08:21:43;96569.22;;;10.90;67.19
56142;BME280;42018;48.588;10.836;2023-05-01T08:24:29;96575.78;;;11.08;66.99
56142;BME280;42018;48.588;10.836;2023-05-01T08:27:14;96579.03;;;10.90;66.75
56142;BME280;42018;48.588;10.836;2023-05-01T08:29:59;96576.13;;;10.86;68.88
56142;BME280;42018;48.588;10.836;2023-05-01T08:32:45;96577.19;;;10.80;68.91
56142;BME280;42018;48.588;10.836;2023-05-01T08:35:30;96576.78;;;10.37;70.36
56142;BME280;42018;48.588;10.836;2023-05-01T08:38:15;96578.06;;;10.24;68.59
56142;BME280;42018;48.588;10.836;2023-05-01T08:41:00;96587.09;;;10.54;68.87
56142;BME280;42018;48.588;10.836;2023-05-01T08:43:47;96578.84;;;10.71;68.40
56142;BME280;42018;48.588;10.836;2023-05-01T08:46:37;96575.41;;;10.60;67.96
56142;BME280;42018;48.588;10.836;2023-05-01T08:49:29;96584.19;;;10.40;70.09
56142;BME280;42018;48.588;10.836;2023-05-01T08:52:16;96588.16;;;10.27;71.69
56142;BME280;42018;48.588;10.836;2023-05-01T08:55:02;96592.94;;;10.36;71.99
56142;BME280;42018;48.588;10.836;2023-05-01T08:57:49;96592.66;;;10.47;71.15
56142;BME280;42018;48.588;10.836;2023-05-01T09:00:35;96593.72;;;10.57;71.19
56142;BME280;42018;48.588;10.836;2023-05-01T09:03:21;96598.44;;;10.60;70.55
56142;BME280;42018;48.588;10.836;2023-05-01T09:06:06;96599.50;;;10.69;72.57
56142;BME280;42018;48.588;10.836;2023-05-01T09:08:53;96598.16;;;10.82;70.16
56142;BME280;42018;48.588;10.836;2023-05-01T09:14:53;96603.22;;;10.52;70.92
56142;BME280;42018;48.588;10.836;2023-05-01T09:17:39;96601.59;;;10.67;72.16
56142;BME280;42018;48.588;10.836;2023-05-01T09:20:25;96601.78;;;11.01;72.39
56142;BME280;42018;48.588;10.836;2023-05-01T09:23:10;96600.19;;;10.95;71.24
56142;BME280;42018;48.588;10.836;2023-05-01T09:25:56;96596.19;;;11.02;72.96
56142;BME280;42018;48.588;10.836;2023-05-01T09:28:45;96604.22;;;10.87;72.28
56142;BME280;42018;48.588;10.836;2023-05-01T09:31:31;96610.66;;;10.45;73.30
56142;BME280;42018;48.588;10.836;2023-05-01T09:34:16;96608.53;;;10.58;73.36
56142;BME280;42018;48.588;10.836;2023-05-01T09:37:05;96601.84;;;10.86;72.88
56142;BME280;42018;48.588;10.836;2023-05-01T09:39:59;96598.81;;;11.13;72.93
56142;BME280;42018;48.588;10.836;2023-05-01T09:42:51;96604.97;;;11.03;73.54
56142;BME280;42018;48.588;10.836;2023-05-01T09:45:37;96601.53;;;10.97;75.60
56142;BME280;42018;48.588;10.836;2023-05-01T09:48:24;96597.22;;;11.12;73.36
56142;BME280;42018;48.588;10.836;2023-05-01T09:54:16;96596.84;;;11.34;73.75
56142;BME280;42018;48.588;10.836;2023-05-01T09:57:02;96601.03;;;11.45;72.51
56142;BME280;42018;48.588;10.836;2023-05-01T10:00:01;96596.53;;;11.45;72.93
56142;BME280;42018;48.588;10.836;2023-05-01T10:02:47;96592.75;;;11.57;72.82
56142;BME280;42018;48.588;10.836;2023-05-01T10:05:42;96592.84;;;11.81;73.02
56142;BME280;42018;48.588;10.836;2023-05-01T10:11:29;96593.91;;;11.90;70.69
56142;BME280;42018;48.588;10.836;2023-05-01T10:14:15;96591.16;;;11.56;71.16
56142;BME280;42018;48.588;10.836;2023-05-01T10:17:00;96590.13;;;11.96;70.56
56142;BME280;42018;48.588;10.836;2023-05-01T10:19:51;96595.53;;;11.86;71.07
56142;BME280;42018;48.588;10.836;2023-05-01T10:22:37;96600.53;;;11.92;70.94
56142;BME280;42018;48.588;10.836;2023-05-01T10:25:22;96606.41;;;11.84;71.11
56142;BME280;42018;48.588;10.836;2023-05-01T10:28:09;96603.19;;;11.87;71.64
56142;BME280;42018;48.588;10.836;2023-05-01T10:30:56;96606.00;;;11.62;69.94
56142;BME280;42018;48.588;10.836;2023-05-01T10:33:42;96607.50;;;12.17;72.94
56142;BME280;42018;48.588;10.836;2023-05-01T10:36:39;96608.59;;;12.11;71.05
56142;BME280;42018;48.588;10.836;2023-05-01T10:39:33;96603.38;;;12.30;70.42
56142;BME280;42018;48.588;10.836;2023-05-01T10:42:19;96597.72;;;12.42;66.80
56142;BME280;42018;48.588;10.836;2023-05-01T10:48:08;96599.50;;;11.88;69.66
56142;BME280;42018;48.588;10.836;2023-05-01T10:51:26;96602.28;;;12.36;68.15
56142;BME280;42018;48.588;10.836;2023-05-01T10:56:57;96593.09;;;12.53;69.75
56142;BME280;42018;48.588;10.836;2023-05-01T11:00:09;96583.72;;;12.60;69.25
56142;BME280;42018;48.588;10.836;2023-05-01T11:02:47;96585.78;;;13.35;66.78
56142;BME280;42018;48.588;10.836;2023-05-01T11:08:37;96575.72;;;13.89;65.71
56142;BME280;42018;48.588;10.836;2023-05-01T11:14:11;96572.66;;;13.63;64.17
56142;BME280;42018;48.588;10.836;2023-05-01T11:16:57;96574.56;;;13.76;63.99
56142;BME280;42018;48.588;10.836;2023-05-01T11:19:45;96567.81;;;13.84;62.62
56142;BME280;42018;48.588;10.836;2023-05-01T11:22:32;96565.00;;;14.08;64.28
56142;BME280;42018;48.588;10.836;2023-05-01T11:25:19;96562.91;;;14.24;62.42
56142;BME280;42018;48.588;10.836;2023-05-01T11:28:04;96550.69;;;14.04;61.28
56142;BME280;42018;48.588;10.836;2023-05-01T11:30:53;96564.91;;;14.46;60.32
56142;BME280;42018;48.588;10.836;2023-05-01T11:33:39;96554.78;;;14.61;60.81
56142;BME280;42018;48.588;10.836;2023-05-01T11:36:25;96554.50;;;14.77;60.50
56142;BME280;42018;48.588;10.836;2023-05-01T11:39:14;96553.41;;;14.78;59.78
56142;BME280;42018;48.588;10.836;2023-05-01T11:42:09;96551.34;;;14.28;59.59
56142;BME280;42018;48.588;10.836;2023-05-01T11:45:04;96544.13;;;13.82;61.07
56142;BME280;42018;48.588;10.836;2023-05-01T11:47:49;96552.25;;;14.24;61.08
56142;BME280;42018;48.588;10.836;2023-05-01T11:50:35;96544.72;;;14.72;59.65
56142;BME280;42018;48.588;10.836;2023-05-01T11:53:21;96544.28;;;14.05;62.05
56142;BME280;42018;48.588;10.836;2023-05-01T11:56:19;96542.75;;;14.92;61.02
56142;BME280;42018;48.588;10.836;2023-05-01T11:59:14;96545.09;;;15.07;59.12
56142;BME280;42018;48.588;10.836;2023-05-01T12:02:00;96547.03;;;15.15;59.08
56142;BME280;42018;48.588;10.836;2023-05-01T12:04:46;96543.53;;;14.78;61.50
56142;BME280;42018;48.588;10.836;2023-05-01T12:07:31;96548.06;;;14.92;59.22
56142;BME280;42018;48.588;10.836;2023-05-01T12:10:20;96548.59;;;14.20;61.22
56142;BME280;42018;48.588;10.836;2023-05-01T12:13:06;96550.34;;;14.57;63.47
56142;BME280;42018;48.588;10.836;2023-05-01T12:15:52;96550.25;;;14.90;58.87
56142;BME280;42018;48.588;10.836;2023-05-01T12:18:38;96546.00;;;14.61;60.45
56142;BME280;42018;48.588;10.836;2023-05-01T12:21:23;96539.09;;;14.88;59.52
56142;BME280;42018;48.588;10.836;2023-05-01T12:24:11;96542.94;;;14.81;60.03
56142;BME280;42018;48.588;10.836;2023-05-01T12:27:00;96534.94;;;15.45;58.33
56142;BME280;42018;48.588;10.836;2023-05-01T12:29:45;96531.75;;;15.43;58.06
56142;BME280;42018;48.588;10.836;2023-05-01T12:32:32;96531.72;;;15.71;57.37
56142;BME280;42018;48.588;10.836;2023-05-01T12:35:18;96543.97;;;15.72;57.91
56142;BME280;42018;48.588;10.836;2023-05-01T12:38:13;96533.06;;;15.46;57.45
56142;BME280;42018;48.588;10.836;2023-05-01T12:40:59;96527.47;;;15.70;56.56
56142;BME280;42018;48.588;10.836;2023-05-01T12:43:45;96528.31;;;15.65;54.86
56142;BME280;42018;48.588;10.836;2023-05-01T12:46:31;96526.81;;;14.87;57.01
56142;BME280;42018;48.588;10.836;2023-05-01T12:49:16;96516.78;;;15.33;57.24
56142;BME280;42018;48.588;10.836;2023-05-01T12:52:03;96515.31;;;16.09;56.29
56142;BME280;42018;48.588;10.836;2023-05-01T12:54:49;96516.16;;;15.95;56.59
56142;BME280;42018;48.588;10.836;2023-05-01T12:57:34;96516.63;;;16.51;55.68
56142;BME280;42018;48.588;10.836;2023-05-01T13:00:20;96515.34;;;16.88;54.05
56142;BME280;42018;48.588;10.836;2023-05-01T13:03:05;96505.94;;;17.17;52.41
56142;BME280;42018;48.588;10.836;2023-05-01T13:05:55;96505.63;;;17.10;52.05
56142;BME280;42018;48.588;10.836;2023-05-01T13:08:41;96505.03;;;15.57;54.22
56142;BME280;42018;48.588;10.836;2023-05-01T13:11:26;96504.88;;;15.98;54.22
56142;BME280;42018;48.588;10.836;2023-05-01T13:14:12;96493.94;;;16.88;53.70
56142;BME280;42018;48.588;10.836;2023-05-01T13:16:57;96506.81;;;15.25;56.44
56142;BME280;42018;48.588;10.836;2023-05-01T13:19:42;96496.81;;;16.21;54.19
56142;BME280;42018;48.588;10.836;2023-05-01T13:22:34;96493.88;;;15.77;55.05
56142;BME280;42018;48.588;10.836;2023-05-01T13:25:20;96496.28;;;16.10;54.82
56142;BME280;42018;48.588;10.836;2023-05-01T13:28:06;96489.53;;;16.84;55.46
56142;BME280;42018;48.588;10.836;2023-05-01T13:30:53;96487.97;;;16.91;53.29
56142;BME280;42018;48.588;10.836;2023-05-01T13:33:41;96488.47;;;17.02;52.72
56142;BME280;42018;48.588;10.836;2023-05-01T13:36:29;96485.63;;;17.07;53.74
56142;BME280;42018;48.588;10.836;2023-05-01T13:39:19;96489.53;;;16.84;52.08
56142;BME280;42018;48.588;10.836;2023-05-01T13:42:04;96489.06;;;16.99;52.75
56142;BME280;42018;48.588;10.836;2023-05-01T13:44:51;96488.91;;;16.95;53.55
56142;BME280;42018;48.588;10.836;2023-05-01T13:47:38;96492.53;;;16.91;53.15
56142;BME280;42018;48.588;10.836;2023-05-01T13:50:24;96488.91;;;16.95;52.70
56142;BME280;42018;48.588;10.836;2023-05-01T13:53:09;96491.09;;;16.76;53.24
56142;BME280;42018;48.588;10.836;2023-05-01T13:55:55;96492.06;;;16.49;53.32
56142;BME280;42018;48.588;10.836;2023-05-01T13:58:40;96496.03;;;16.60;53.86
56142;BME280;42018;48.588;10.836;2023-05-01T14:01:25;96493.31;;;16.12;53.43
56142;BME280;42018;48.588;10.836;2023-05-01T14:04:15;96496.91;;;15.62;55.41
56142;BME280;42018;48.588;10.836;2023-05-01T14:07:01;96493.34;;;15.30;56.31
56142;BME280;42018;48.588;10.836;2023-05-01T14:09:51;96498.16;;;15.42;58.08
56142;BME280;42018;48.588;10.836;2023-05-01T14:12:36;96491.09;;;15.83;55.68
56142;BME280;42018;48.588;10.836;2023-05-01T14:15:23;96494.75;;;15.28;56.15
56142;BME280;42018;48.588;10.836;2023-05-01T14:18:09;96487.59;;;15.73;57.04
56142;BME280;42018;48.588;10.836;2023-05-01T14:20:55;96492.72;;;15.92;55.02
56142;BME280;42018;48.588;10.836;2023-05-01T14:23:42;96487.31;;;16.06;55.90
56142;BME280;42018;48.588;10.836;2023-05-01T14:26:28;96479.19;;;16.20;54.77
56142;BME280;42018;48.588;10.836;2023-05-01T14:29:15;96481.25;;;16.23;54.55
56142;BME280;42018;48.588;10.836;2023-05-01T14:32:09;96489.38;;;16.09;55.19
56142;BME280;42018;48.588;10.836;2023-05-01T14:34:54;96489.25;;;15.92;54.59
56142;BME280;42018;48.588;10.836;2023-05-01T14:37:43;96493.75;;;15.83;55.13
56142;BME280;42018;48.588;10.836;2023-05-01T14:40:29;96491.44;;;16.12;54.54
56142;BME280;42018;48.588;10.836;2023-05-01T14:43:32;96488.59;;;16.09;56.00
56142;BME280;42018;48.588;10.836;2023-05-01T14:46:31;96480.28;;;15.88;55.04
56142;BME280;42018;48.588;10.836;2023-05-01T14:49:20;96487.47;;;16.10;54.91
56142;BME280;42018;48.588;10.836;2023-05-01T14:52:06;96491.38;;;15.59;56.22
56142;BME280;42018;48.588;10.836;2023-05-01T14:58:25;96491.19;;;16.00;54.73
56142;BME280;42018;48.588;10.836;2023-05-01T15:04:38;96489.38;;;16.09;56.01
56142;BME280;42018;48.588;10.836;2023-05-01T15:10:41;96497.41;;;16.49;53.16
56142;BME280;42018;48.588;10.836;2023-05-01T15:13:27;96495.72;;;16.62;53.70
56142;BME280;42018;48.588;10.836;2023-05-01T15:16:13;96493.69;;;16.67;53.69
56142;BME280;42018;48.588;10.836;2023-05-01T15:18:59;96492.25;;;16.61;54.25
56142;BME280;42018;48.588;10.836;2023-05-01T15:21:45;96495.56;;;16.58;53.78
56142;BME280;42018;48.588;10.836;2023-05-01T15:24:30;96500.56;;;16.51;54.34
56142;BME280;42018;48.588;10.836;2023-05-01T15:27:15;96496.78;;;16.52;53.62